createdAt,value
2022-11-03T00:01:49.201Z,7.4664
2022-11-03T00:06:51.079Z,6.6368
2022-11-03T00:11:52.722Z,5.33315
2022-11-03T00:16:54.425Z,4.0295
2022-11-03T00:21:56.050Z,2.42955
2022-11-03T00:26:57.701Z,1.6592
2022-11-03T00:31:59.308Z,1.2444
2022-11-03T00:37:00.988Z,0.88885
2022-11-03T00:42:02.708Z,0.47405
2022-11-03T00:47:04.405Z,0
2022-11-03T00:52:06.076Z,0
2022-11-03T00:57:07.688Z,0
2022-11-03T01:02:09.432Z,0
2022-11-03T01:07:11.121Z,0
2022-11-03T01:12:12.787Z,0
2022-11-03T01:17:14.433Z,0
2022-11-03T01:22:16.073Z,0
2022-11-03T01:27:17.802Z,0
2022-11-03T01:32:19.430Z,0
2022-11-03T01:37:21.172Z,0
2022-11-03T01:42:22.792Z,0
2022-11-03T01:47:24.446Z,0
2022-11-03T01:52:26.087Z,0
2022-11-03T01:57:27.736Z,0
2022-11-03T02:02:29.398Z,0
2022-11-03T02:07:31.074Z,0
2022-11-03T02:12:32.685Z,0
2022-11-03T02:17:34.400Z,0
2022-11-03T02:22:36.046Z,0
2022-11-03T02:27:37.648Z,0
2022-11-03T02:32:39.246Z,0
2022-11-03T02:37:40.827Z,0
2022-11-03T02:42:42.472Z,0
2022-11-03T02:47:44.126Z,0
2022-11-03T02:52:45.784Z,0
2022-11-03T02:57:47.546Z,0
2022-11-03T03:02:49.143Z,0
2022-11-03T03:07:50.718Z,0
2022-11-03T03:12:52.349Z,0
2022-11-03T03:17:53.957Z,0
2022-11-03T03:22:55.594Z,0
2022-11-03T03:27:57.199Z,0
2022-11-03T03:32:58.813Z,0
2022-11-03T03:38:00.423Z,0
2022-11-03T03:43:02.057Z,0
2022-11-03T03:48:03.795Z,0
2022-11-03T03:53:05.459Z,0
2022-11-03T03:58:07.512Z,0
2022-11-03T04:03:09.316Z,0
2022-11-03T04:08:10.893Z,0
2022-11-03T04:13:12.631Z,0
2022-11-03T04:18:14.258Z,0
2022-11-03T04:23:15.860Z,0
2022-11-03T04:28:17.458Z,0
2022-11-03T04:33:19.067Z,0
2022-11-03T04:38:20.729Z,0
2022-11-03T04:43:22.387Z,0
2022-11-03T04:48:24.042Z,0
2022-11-03T04:53:25.691Z,0
2022-11-03T04:58:27.369Z,0
2022-11-03T05:03:29.017Z,0
2022-11-03T05:08:30.654Z,0
2022-11-03T05:13:32.361Z,0
2022-11-03T05:18:34.021Z,0
2022-11-03T05:23:35.703Z,0
2022-11-03T05:28:37.676Z,0
2022-11-03T05:33:39.316Z,0
2022-11-03T05:38:41.246Z,0
2022-11-03T05:43:42.898Z,0
2022-11-03T05:48:44.687Z,0
2022-11-03T05:53:46.453Z,0
2022-11-03T05:58:48.438Z,0
2022-11-03T06:03:50.206Z,0
2022-11-03T06:08:51.783Z,0
2022-11-03T06:13:53.417Z,0
2022-11-03T06:18:55.011Z,0
2022-11-03T06:23:56.629Z,0
2022-11-03T06:28:58.259Z,0
2022-11-03T06:33:59.942Z,0
2022-11-03T06:39:01.767Z,0
2022-11-03T06:44:03.387Z,0
2022-11-03T06:49:05.049Z,0
2022-11-03T06:54:06.631Z,0
2022-11-03T06:59:08.485Z,0
2022-11-03T07:04:10.349Z,0
2022-11-03T07:09:11.976Z,0
2022-11-03T07:14:13.620Z,0
2022-11-03T07:19:15.256Z,0
2022-11-03T07:24:16.885Z,0
2022-11-03T07:29:18.549Z,0
2022-11-03T07:34:20.207Z,0
2022-11-03T07:39:21.903Z,0
2022-11-03T07:44:23.557Z,0
2022-11-03T07:49:25.263Z,0
2022-11-03T07:54:26.975Z,0
2022-11-03T07:59:28.656Z,0
2022-11-03T08:04:30.302Z,0
2022-11-03T08:09:31.950Z,0
2022-11-03T08:14:33.631Z,0
2022-11-03T08:19:35.310Z,0
2022-11-03T08:24:36.962Z,0
2022-11-03T08:29:38.605Z,0
2022-11-03T08:34:40.213Z,0
2022-11-03T08:39:41.956Z,0
2022-11-03T08:44:43.623Z,0
2022-11-03T08:49:45.302Z,0
2022-11-03T08:54:47.135Z,0
2022-11-03T08:59:48.826Z,0
2022-11-03T09:04:50.453Z,0
2022-11-03T09:10:20.021Z,0
2022-11-03T09:15:24.084Z,0
2022-11-03T09:20:25.698Z,0
2022-11-03T09:25:27.611Z,0
2022-11-03T09:30:29.330Z,0
2022-11-03T09:35:30.957Z,0
2022-11-03T09:40:32.683Z,0
2022-11-03T09:45:34.348Z,0
2022-11-03T09:50:35.968Z,0
2022-11-03T09:55:37.569Z,0
2022-11-03T10:00:39.208Z,0
2022-11-03T10:05:40.947Z,0
2022-11-03T10:10:42.648Z,0
2022-11-03T10:15:44.295Z,0
2022-11-03T10:20:45.982Z,0
2022-11-03T10:25:47.641Z,0
2022-11-03T10:31:10.116Z,0
2022-11-03T10:36:13.461Z,0
2022-11-03T10:41:15.162Z,0
2022-11-03T10:46:36.613Z,0
2022-11-03T10:51:50.720Z,0
2022-11-03T10:56:52.428Z,0
2022-11-03T11:01:54.182Z,0
2022-11-03T11:06:55.898Z,0
2022-11-03T11:11:58.455Z,0
2022-11-03T11:17:00.395Z,0
2022-11-03T11:22:02.110Z,0
2022-11-03T11:27:03.741Z,0
2022-11-03T11:32:05.358Z,0
2022-11-03T11:37:07.177Z,0
2022-11-03T11:42:08.903Z,0
2022-11-03T11:47:10.761Z,0
2022-11-03T11:52:15.517Z,0
2022-11-03T11:57:20.720Z,0
2022-11-03T12:02:22.331Z,0
2022-11-03T12:07:23.946Z,0
2022-11-03T12:12:25.567Z,0
2022-11-03T12:17:27.227Z,0
2022-11-03T12:22:28.882Z,0
2022-11-03T12:27:30.495Z,0
2022-11-03T12:32:33.530Z,0
2022-11-03T12:37:36.281Z,0
2022-11-03T12:42:37.957Z,0
2022-11-03T12:47:39.594Z,0
2022-11-03T12:52:41.242Z,0
2022-11-03T12:57:43.013Z,0
2022-11-03T13:02:44.812Z,0
2022-11-03T13:07:46.602Z,0
2022-11-03T13:12:48.256Z,0
2022-11-03T13:18:12.227Z,0
2022-11-03T13:23:17.490Z,0
2022-11-03T13:28:22.356Z,0
2022-11-03T13:33:23.938Z,0
2022-11-03T13:38:25.731Z,0
2022-11-03T13:43:27.391Z,0
2022-11-03T13:59:32.434Z,0
2022-11-03T14:04:41.780Z,0
2022-11-03T14:09:44.180Z,0
2022-11-03T14:14:45.843Z,0
2022-11-03T14:19:51.999Z,0
2022-11-03T14:24:54.420Z,0
2022-11-03T14:29:56.013Z,0
2022-11-03T14:34:57.697Z,1.3463
2022-11-03T14:39:59.521Z,0.9481
2022-11-03T14:45:01.269Z,1.7152
2022-11-03T14:50:02.876Z,2.87705
2022-11-03T14:55:04.587Z,2.42955
2022-11-03T15:00:06.227Z,8.6863
2022-11-03T15:05:07.864Z,4.59225
2022-11-03T15:10:09.553Z,4.96115
2022-11-03T15:15:11.280Z,4.91835
2022-11-03T15:20:12.937Z,8.8156
2022-11-03T15:25:17.167Z,8.02265
2022-11-03T15:30:22.054Z,8.059
2022-11-03T15:35:23.740Z,9.36265
2022-11-03T15:40:25.779Z,9.48115
2022-11-03T15:45:27.520Z,8.9449
2022-11-03T15:50:29.133Z,11.79215
2022-11-03T15:55:30.770Z,11.73295
2022-11-03T16:00:32.663Z,14.6958
2022-11-03T16:05:34.360Z,18.66595
2022-11-03T16:10:36.011Z,19.7326
2022-11-03T16:15:37.692Z,18.4882
2022-11-03T16:20:39.347Z,19.37705
2022-11-03T16:25:41.005Z,20.85845
2022-11-03T16:30:42.725Z,18.903
2022-11-03T16:35:44.389Z,19.14005
2022-11-03T16:40:46.085Z,21.8066
2022-11-03T16:45:47.724Z,22.7547
2022-11-03T16:50:51.570Z,27.8508
2022-11-03T16:55:56.104Z,29.8063
2022-11-03T17:00:57.827Z,38.99105
2022-11-03T17:05:59.647Z,50.6054
2022-11-03T17:11:01.859Z,58.3681
2022-11-03T17:16:03.511Z,85.86325
2022-11-03T17:21:05.191Z,84.61895
2022-11-03T17:26:06.891Z,113.59555
2022-11-03T17:31:08.517Z,98.07035
2022-11-03T17:36:10.172Z,104.94415
2022-11-03T17:41:15.014Z,137.47625
2022-11-03T17:46:19.736Z,164.3197
2022-11-03T17:51:21.370Z,129.89145
2022-11-03T17:56:30.069Z,119.16595
2022-11-03T18:01:32.908Z,124.08425
2022-11-03T18:06:34.654Z,128.17295
2022-11-03T18:11:36.316Z,112.52915
2022-11-03T18:16:38.202Z,85.09325
2022-11-03T18:21:40.091Z,116.8549
2022-11-03T18:26:41.849Z,131.9061
2022-11-03T18:31:43.555Z,159.5792
2022-11-03T18:36:45.252Z,120.23255
2022-11-03T18:41:46.856Z,127.8175
2022-11-03T18:46:48.519Z,146.12785
2022-11-03T18:51:50.184Z,155.3719
2022-11-03T18:56:51.815Z,154.00895
2022-11-03T19:01:53.605Z,156.6755
2022-11-03T19:06:55.336Z,132.0248
2022-11-03T19:11:56.942Z,161.77165
2022-11-03T19:17:22.307Z,158.57185
2022-11-03T19:22:25.043Z,190.21495
2022-11-03T19:27:26.772Z,205.1477
2022-11-03T19:32:28.402Z,210.65855
2022-11-03T19:37:35.166Z,186.1855
2022-11-03T19:42:37.666Z,182.98565
2022-11-03T19:47:39.724Z,163.19375
2022-11-03T19:52:43.722Z,149.62395
2022-11-03T19:57:45.472Z,159.8754
2022-11-03T20:02:47.202Z,151.28315
2022-11-03T20:07:48.961Z,153.47565
2022-11-03T20:12:50.696Z,126.51375
2022-11-03T20:17:52.337Z,120.35105
2022-11-03T20:22:54.098Z,114.66235
2022-11-03T20:27:55.995Z,117.86225
2022-11-03T20:32:57.892Z,110.86995
2022-11-03T20:37:59.543Z,117.15115
2022-11-03T20:43:01.367Z,114.3661
2022-11-03T20:48:03.065Z,113.06245
2022-11-03T20:53:04.679Z,107.55155
2022-11-03T20:58:06.774Z,106.30715
2022-11-03T21:03:08.904Z,108.9737
2022-11-03T21:08:10.774Z,105.89235
2022-11-03T21:13:12.421Z,120.2325
2022-11-03T21:18:14.012Z,106.84045
2022-11-03T21:23:15.731Z,90.0115
2022-11-03T21:28:17.374Z,86.9301
2022-11-03T21:33:20.705Z,80.11555
2022-11-03T21:38:22.346Z,76.91565
2022-11-03T21:43:24.011Z,76.32305
2022-11-03T21:48:25.635Z,68.85665
2022-11-03T21:53:27.293Z,58.3089
2022-11-03T21:58:28.941Z,51.90915
2022-11-03T22:03:30.582Z,46.7538
2022-11-03T22:08:32.242Z,41.71695
2022-11-03T22:13:33.978Z,38.69485
2022-11-03T22:18:35.714Z,38.81335
2022-11-03T22:23:37.317Z,39.10965
2022-11-03T22:28:39.079Z,37.9245
2022-11-03T22:33:40.706Z,37.3912
2022-11-03T22:38:42.359Z,33.00615
2022-11-03T22:43:44.038Z,33.0654
2022-11-03T22:48:45.628Z,33.3617
2022-11-03T22:53:47.265Z,32.65065
2022-11-03T22:58:48.959Z,29.0952
2022-11-03T23:03:50.671Z,26.4879
2022-11-03T23:08:52.291Z,22.99175
2022-11-03T23:13:54.004Z,20.20665
2022-11-03T23:18:55.679Z,18.54745
2022-11-03T23:23:57.310Z,16.47345
2022-11-03T23:28:58.928Z,13.4513
2022-11-03T23:34:00.610Z,12.2662
2022-11-03T23:39:02.271Z,10.1922
2022-11-03T23:44:03.940Z,8.41445
2022-11-03T23:49:05.559Z,7.5849
2022-11-03T23:54:07.227Z,4.0887
2022-11-03T23:59:08.861Z,2.4888
